| time (UTC) | temp F | wind direction | speed MPH | gust MPH | rain 1hr in | rain 24hr in | rain mn in | humidity % | barometer mb |
| 20260903061545 | 68 | 129 | 2.0 | 4.0 | 0.00 | 0.02 | 0.00 | 89 | 1018.8 |
| 20260903060141 | 68 | 191 | 5.0 | 11.0 | 0.00 | 0.02 | 0.00 | 89 | 1019.3 |
| 20260903054540 | 67 | 231 | 0.0 | 3.0 | 0.00 | 0.02 | 0.00 | 89 | 1019.1 |
| 20260903053039 | 67 | 231 | 1.0 | 6.0 | 0.00 | 0.02 | 0.00 | 89 | 1019.2 |
| 20260903051539 | 67 | 194 | 7.0 | 10.0 | 0.00 | 0.02 | 0.00 | 89 | 1019.2 |
| 20260903050037 | 68 | 224 | 4.0 | 10.0 | 0.00 | 0.02 | 0.00 | 89 | 1019.0 |
| 20260903044535 | 68 | 150 | 5.0 | 11.0 | 0.00 | 0.02 | 0.00 | 89 | 1019.3 |
| 20260903043032 | 68 | 209 | 4.0 | 7.0 | 0.00 | 0.02 | 0.00 | 89 | 1019.9 |
| 20260903041526 | 68 | 167 | 2.0 | 9.0 | 0.00 | 0.02 | 0.00 | 89 | 1021.1 |
| 20260903040022 | 69 | 253 | 3.0 | 10.0 | 0.00 | 0.02 | 0.00 | 89 | 1021.7 |
| 20260903034522 | 69 | 296 | 6.0 | 11.0 | 0.00 | 0.02 | 0.02 | 89 | 1021.0 |
| 20260903033032 | 70 | 181 | 3.0 | 8.0 | 0.00 | 0.02 | 0.02 | 89 | 1019.3 |
| 20260903031523 | 70 | 198 | 2.0 | 9.0 | 0.00 | 0.02 | 0.02 | 88 | 1019.7 |
| 20260903030027 | 70 | 222 | 3.0 | 8.0 | 0.00 | 0.02 | 0.02 | 88 | 1020.0 |
| 20260903024520 | 71 | 222 | 6.0 | 13.0 | 0.00 | 0.02 | 0.02 | 89 | 1021.0 |
| 20260903023020 | 70 | 215 | 6.0 | 11.0 | 0.00 | 0.02 | 0.02 | 89 | 1021.5 |
| 20260903021531 | 70 | 229 | 2.0 | 9.0 | 0.00 | 0.02 | 0.02 | 89 | 1021.2 |
| 20260903020018 | 71 | 334 | 12.0 | 17.0 | 0.00 | 0.02 | 0.02 | 88 | 1022.7 |
| 20260903014517 | 71 | 236 | 4.0 | 12.0 | 0.00 | 0.02 | 0.02 | 87 | 1020.0 |
| 20260903013019 | 72 | 185 | 5.0 | 6.0 | 0.00 | 0.02 | 0.02 | 86 | 1020.4 |
| 20260903011516 | 72 | 225 | 4.0 | 7.0 | 0.00 | 0.02 | 0.02 | 85 | 1020.5 |
| 20260903010016 | 72 | 207 | 1.0 | 7.0 | 0.00 | 0.02 | 0.02 | 85 | 1020.2 |
| 20260903004521 | 72 | 175 | 4.0 | 9.0 | 0.00 | 0.03 | 0.02 | 85 | 1019.5 |
| 20260903003015 | 72 | 36 | 4.0 | 11.0 | 0.00 | 0.03 | 0.02 | 84 | 1019.3 |
| 20260903001517 | 72 | 219 | 4.0 | 8.0 | 0.00 | 0.03 | 0.02 | 84 | 1019.6 |
| 20260903000014 | 73 | 185 | 4.0 | 10.0 | 0.00 | 0.03 | 0.02 | 84 | 1019.3 |
| 20260902234516 | 73 | 92 | 1.0 | 5.0 | 0.01 | 0.03 | 0.02 | 83 | 1020.0 |
| 20260902233013 | 73 | 218 | 1.0 | 10.0 | 0.01 | 0.03 | 0.02 | 83 | 1019.8 |
| 20260902231517 | 73 | 211 | 4.0 | 11.0 | 0.01 | 0.03 | 0.02 | 83 | 1019.7 |
| 20260902230013 | 73 | 144 | 6.0 | 12.0 | 0.01 | 0.03 | 0.02 | 83 | 1019.4 |
| 20260902224512 | 74 | 221 | 3.0 | 9.0 | 0.00 | 0.02 | 0.01 | 83 | 1019.3 |
| 20260902223013 | 74 | 254 | 4.0 | 11.0 | 0.00 | 0.02 | 0.01 | 83 | 1019.2 |
| 20260902221516 | 74 | 267 | 3.0 | 13.0 | 0.00 | 0.02 | 0.01 | 83 | 1019.4 |
| 20260902220008 | 74 | 219 | 2.0 | 9.0 | 0.00 | 0.02 | 0.01 | 84 | 1019.7 |
| 20260902214508 | 73 | 201 | 2.0 | 8.0 | 0.00 | 0.02 | 0.01 | 84 | 1020.1 |
| 20260902213008 | 73 | 141 | 3.0 | 10.0 | 0.00 | 0.02 | 0.01 | 84 | 1020.4 |
| 20260902211511 | 74 | 196 | 2.0 | 9.0 | 0.00 | 0.02 | 0.01 | 83 | 1020.1 |
| 20260902210007 | 74 | 203 | 3.0 | 13.0 | 0.00 | 0.02 | 0.01 | 83 | 1020.1 |
| 20260902204507 | 75 | 216 | 6.0 | 11.0 | 0.00 | 0.02 | 0.01 | 82 | 1020.3 |
| 20260902203005 | 74 | 177 | 2.0 | 10.0 | 0.00 | 0.02 | 0.01 | 83 | 1019.7 |
| 20260902201504 | 74 | 157 | 3.0 | 10.0 | 0.00 | 0.02 | 0.01 | 83 | 1019.8 |
| 20260902200006 | 74 | 242 | 5.0 | 12.0 | 0.00 | 0.02 | 0.01 | 84 | 1020.2 |
| 20260902194600 | 74 | 219 | 3.0 | 11.0 | 0.00 | 0.02 | 0.01 | 85 | 1020.6 |
| 20260902193113 | 74 | 166 | 3.0 | 11.0 | 0.00 | 0.02 | 0.01 | 85 | 1020.7 |
| 20260902191603 | 74 | 175 | 3.0 | 8.0 | 0.00 | 0.02 | 0.01 | 85 | 1020.9 |
| 20260902190103 | 74 | 124 | 6.0 | 10.0 | 0.00 | 0.02 | 0.01 | 84 | 1020.9 |
| 20260902184618 | 74 | 171 | 2.0 | 11.0 | 0.00 | 0.02 | 0.01 | 85 | 1020.9 |
| 20260902183107 | 74 | 188 | 2.0 | 7.0 | 0.00 | 0.02 | 0.01 | 87 | 1020.8 |
| 20260902181552 | 74 | 98 | 1.0 | 10.0 | 0.00 | 0.02 | 0.01 | 88 | 1020.9 |
| 20260902180050 | 73 | 228 | 2.0 | 11.0 | 0.00 | 0.02 | 0.01 | 89 | 1021.1 |
| 20260902174547 | 72 | 86 | 2.0 | 12.0 | 0.00 | 0.02 | 0.01 | 90 | 1021.5 |
| 20260902173045 | 72 | 88 | 7.0 | 11.0 | 0.00 | 0.02 | 0.01 | 90 | 1021.5 |
| 20260902171545 | 72 | 28 | 3.0 | 4.0 | 0.00 | 0.02 | 0.01 | 90 | 1021.9 |
| 20260902170045 | 72 | 40 | 2.0 | 8.0 | 0.00 | 0.02 | 0.01 | 89 | 1021.9 |
| 20260902164544 | 72 | 67 | 3.0 | 10.0 | 0.00 | 0.02 | 0.01 | 89 | 1022.0 |
| 20260902163054 | 72 | 74 | 5.0 | 12.0 | 0.00 | 0.02 | 0.01 | 89 | 1022.0 |
| 20260902161544 | 73 | 70 | 5.0 | 9.0 | 0.00 | 0.02 | 0.01 | 90 | 1021.8 |
| 20260902160044 | 73 | 78 | 3.0 | 6.0 | 0.00 | 0.02 | 0.01 | 90 | 1021.6 |
| 20260902154543 | 72 | 121 | 3.0 | 9.0 | 0.00 | 0.02 | 0.01 | 90 | 1021.4 |
| 20260902153042 | 72 | 224 | 1.0 | 5.0 | 0.00 | 0.02 | 0.01 | 90 | 1021.9 |
| 20260902151542 | 72 | 222 | 2.0 | 6.0 | 0.00 | 0.02 | 0.01 | 89 | 1021.7 |
| 20260902150041 | 72 | 175 | 0.0 | 5.0 | 0.00 | 0.02 | 0.01 | 89 | 1021.9 |
| 20260902144541 | 72 | 253 | 1.0 | 4.0 | 0.00 | 0.02 | 0.01 | 89 | 1022.0 |
| 20260902143039 | 72 | 175 | 1.0 | 4.0 | 0.00 | 0.02 | 0.01 | 88 | 1021.3 |
| 20260902141543 | 73 | 67 | 3.0 | 5.0 | 0.00 | 0.02 | 0.01 | 88 | 1021.6 |
| 20260902140044 | 73 | 225 | 1.0 | 2.0 | 0.00 | 0.02 | 0.01 | 88 | 1021.8 |
| 20260902134553 | 73 | 225 | 2.0 | 4.0 | 0.00 | 0.03 | 0.01 | 89 | 1022.2 |
| 20260902133034 | 73 | 252 | 2.0 | 4.0 | 0.00 | 0.03 | 0.01 | 90 | 1021.8 |
| 20260902131543 | 73 | 200 | 1.0 | 11.0 | 0.00 | 0.03 | 0.01 | 90 | 1021.6 |
| 20260902130025 | 72 | 186 | 1.0 | 8.0 | 0.01 | 0.03 | 0.01 | 91 | 1021.6 |
| 20260902124525 | 72 | 164 | 1.0 | 10.0 | 0.01 | 0.03 | 0.01 | 91 | 1021.6 |
| 20260902123023 | 71 | 181 | 2.0 | 7.0 | 0.01 | 0.03 | 0.01 | 92 | 1021.3 |
| 20260902121522 | 70 | 85 | 0.0 | 2.0 | 0.01 | 0.03 | 0.01 | 92 | 1021.3 |
| 20260902120021 | 70 | 85 | 1.0 | 3.0 | 0.00 | 0.02 | 0.00 | 92 | 1021.0 |
| 20260902114522 | 69 | 134 | 1.0 | 3.0 | 0.00 | 0.02 | 0.00 | 92 | 1020.9 |
| 20260902113021 | 69 | 134 | 1.0 | 3.0 | 0.00 | 0.02 | 0.00 | 91 | 1020.9 |
| 20260902111520 | 68 | 206 | 0.0 | 2.0 | 0.00 | 0.02 | 0.00 | 91 | 1020.7 |
| 20260902110020 | 68 | 206 | 0.0 | 2.0 | 0.00 | 0.02 | 0.00 | 92 | 1020.7 |
| 20260902104519 | 68 | 206 | 0.0 | 2.0 | 0.00 | 0.02 | 0.00 | 91 | 1020.9 |
| 20260902103018 | 68 | 206 | 0.0 | 2.0 | 0.00 | 0.02 | 0.00 | 91 | 1021.0 |
| 20260902101518 | 68 | 206 | 0.0 | 3.0 | 0.00 | 0.02 | 0.00 | 91 | 1021.1 |
| 20260902100018 | 68 | 206 | 0.0 | 3.0 | 0.00 | 0.02 | 0.00 | 91 | 1021.2 |
| 20260902094518 | 68 | 206 | 0.0 | 3.0 | 0.00 | 0.02 | 0.00 | 91 | 1021.0 |
| 20260902093017 | 68 | 206 | 0.0 | 2.0 | 0.00 | 0.02 | 0.00 | 91 | 1021.0 |
| 20260902091533 | 68 | 206 | 0.0 | 2.0 | 0.00 | 0.02 | 0.00 | 91 | 1021.0 |
| 20260902090015 | 68 | 206 | 1.0 | 2.0 | 0.00 | 0.02 | 0.00 | 91 | 1021.1 |
| 20260902084515 | 68 | 206 | 0.0 | 2.0 | 0.00 | 0.02 | 0.00 | 91 | 1021.1 |
| 20260902083014 | 68 | 206 | 0.0 | 3.0 | 0.00 | 0.02 | 0.00 | 91 | 1021.1 |
| 20260902081526 | 67 | 206 | 1.0 | 3.0 | 0.00 | 0.02 | 0.00 | 91 | 1021.0 |
| 20260902080013 | 67 | 206 | 0.0 | 3.0 | 0.00 | 0.02 | 0.00 | 91 | 1020.8 |
| 20260902074513 | 67 | 206 | 1.0 | 4.0 | 0.00 | 0.02 | 0.00 | 91 | 1021.0 |
| 20260902073011 | 68 | 212 | 2.0 | 5.0 | 0.00 | 0.02 | 0.00 | 91 | 1020.9 |
| 20260902071526 | 68 | 211 | 3.0 | 6.0 | 0.00 | 0.02 | 0.00 | 91 | 1020.8 |
| 20260902070008 | 69 | 197 | 1.0 | 3.0 | 0.00 | 0.02 | 0.00 | 91 | 1021.0 |
| 20260902064508 | 69 | 196 | 2.0 | 4.0 | 0.00 | 0.02 | 0.00 | 91 | 1021.1 |
| 20260902063009 | 69 | 193 | 2.0 | 3.0 | 0.00 | 0.02 | 0.00 | 91 | 1020.9 |